Time;durP1;ratioP1;P1;durP2;ratioP2;P2;SDS_P1;SDS_P2;PMS_P1;PMS_P2;Temp;Humidity;BMP_temperature;BMP_pressure;BME280_temperature;BME280_humidity;BME280_pressure;Samples;Min_cycle;Max_cycle;Signal;HPM_P1;HPM_P2
2022/05/10 00:00:49;;;;;;;2.62;1.50;;;;;;;9.20;42.37;101440.20;1726119;81;21094;-74
2022/05/10 00:03:16;;;;;;;2.62;1.27;;;;;;;9.19;41.97;101441.24;1716492;81;21622;-74
2022/05/10 00:05:43;;;;;;;4.17;1.40;;;;;;;9.17;41.54;101434.79;1725638;81;21123;-74
2022/05/10 00:08:14;;;;;;;2.27;1.20;;;;;;;9.18;41.32;101436.93;1706521;81;21008;-72
2022/05/10 00:10:41;;;;;;;2.55;1.15;;;;;;;9.16;41.26;101433.17;1725596;80;20965;-72
2022/05/10 00:13:08;;;;;;;2.30;1.37;;;;;;;9.15;41.30;101426.22;1728583;80;21200;-73
2022/05/10 00:15:35;;;;;;;4.35;1.40;;;;;;;9.14;41.40;101426.72;1716185;81;20997;-74
2022/05/10 00:18:02;;;;;;;2.87;1.40;;;;;;;9.13;41.44;101429.09;1739985;81;21193;-75
2022/05/10 00:20:31;;;;;;;2.33;1.20;;;;;;;9.09;41.47;101430.59;1730435;81;20981;-73
2022/05/10 00:22:59;;;;;;;3.95;1.42;;;;;;;9.06;41.68;101424.38;1730102;81;21032;-75
2022/05/10 00:25:29;;;;;;;3.17;1.30;;;;;;;9.03;41.75;101424.02;1727057;81;21028;-74
2022/05/10 00:27:59;;;;;;;5.15;1.50;;;;;;;9.00;41.64;101430.61;1731867;78;21076;-74
2022/05/10 00:30:28;;;;;;;3.17;1.40;;;;;;;8.96;41.64;101425.44;1719937;81;21154;-74
2022/05/10 00:32:59;;;;;;;2.98;1.45;;;;;;;8.92;41.78;101417.09;1726583;81;21013;-74
2022/05/10 00:35:30;;;;;;;5.25;1.37;;;;;;;8.89;41.70;101417.53;1726424;81;20988;-74
2022/05/10 00:38:03;;;;;;;2.45;1.20;;;;;;;8.86;41.89;101417.98;1723827;81;21111;-73
2022/05/10 00:40:34;;;;;;;2.80;1.27;;;;;;;8.84;42.28;101422.70;1726359;81;21016;-75
2022/05/10 00:43:12;;;;;;;3.33;1.50;;;;;;;8.80;42.55;101417.54;1725210;81;21070;-74
2022/05/10 00:45:46;;;;;;;3.72;1.70;;;;;;;8.77;42.99;101419.84;1726483;81;21526;-73
2022/05/10 00:48:57;;;;;;;2.92;1.60;;;;;;;8.72;43.37;101412.53;1729807;81;21060;-74
2022/05/10 00:51:58;;;;;;;2.85;1.25;;;;;;;8.66;43.93;101409.42;1724955;81;23755;-73
2022/05/10 00:55:01;;;;;;;3.87;1.82;;;;;;;8.62;44.13;101416.20;1725143;81;21122;-74
2022/05/10 00:57:39;;;;;;;6.17;2.12;;;;;;;8.56;44.59;101415.80;1726925;81;21300;-73
2022/05/10 01:00:24;;;;;;;2.95;1.50;;;;;;;8.50;45.18;101422.81;1726910;81;21076;-74
2022/05/10 01:03:29;;;;;;;4.08;1.50;;;;;;;8.45;45.45;101429.30;1723954;81;20990;-75
2022/05/10 01:06:07;;;;;;;3.55;1.32;;;;;;;8.40;46.24;101423.84;1726113;81;21535;-73
2022/05/10 01:09:06;;;;;;;2.40;1.30;;;;;;;8.35;48.22;101423.64;1725704;81;21092;-73
2022/05/10 01:11:50;;;;;;;5.10;2.20;;;;;;;8.29;48.91;101424.03;1722541;81;21443;-74
2022/05/10 01:14:27;;;;;;;2.80;1.45;;;;;;;8.22;48.54;101421.93;1702081;81;21206;-73
2022/05/10 01:16:56;;;;;;;4.55;1.65;;;;;;;8.17;48.18;101429.77;1723204;81;21028;-74
2022/05/10 01:19:24;;;;;;;4.85;1.52;;;;;;;8.12;48.16;101429.08;1725725;81;21040;-74
2022/05/10 01:22:25;;;;;;;5.67;1.40;;;;;;;8.06;47.72;101428.66;1726820;81;21590;-74
2022/05/10 01:25:12;;;;;;;3.22;1.57;;;;;;;8.04;47.32;101428.05;1724933;81;21655;-73
2022/05/10 01:28:22;;;;;;;3.40;1.62;;;;;;;7.99;47.47;101425.21;1719832;81;21028;-73
2022/05/10 01:30:49;;;;;;;4.20;1.87;;;;;;;7.97;47.58;101425.97;1725243;81;21008;-74
2022/05/10 01:33:33;;;;;;;3.85;1.67;;;;;;;7.93;47.84;101430.06;1693662;83;21551;-75
2022/05/10 01:36:24;;;;;;;4.50;1.77;;;;;;;7.91;48.04;101432.16;1733260;81;20933;-73
2022/05/10 01:39:23;;;;;;;4.03;1.52;;;;;;;7.88;48.10;101426.74;1720492;80;22412;-72
2022/05/10 01:41:59;;;;;;;3.33;1.75;;;;;;;7.89;48.20;101425.70;1733619;81;21050;-74
2022/05/10 01:44:40;;;;;;;3.45;1.70;;;;;;;7.88;48.52;101427.27;1738212;80;21015;-74
2022/05/10 01:47:17;;;;;;;2.70;1.45;;;;;;;7.88;49.04;101424.61;1734474;81;21011;-73
2022/05/10 01:50:04;;;;;;;3.65;1.70;;;;;;;7.86;49.36;101423.47;1733476;81;21066;-75
2022/05/10 01:52:52;;;;;;;5.28;1.80;;;;;;;7.85;49.44;101423.19;1710618;81;21323;-73
2022/05/10 01:55:44;;;;;;;4.50;1.62;;;;;;;7.83;49.61;101423.09;1732831;80;21462;-74
2022/05/10 01:58:28;;;;;;;3.30;1.60;;;;;;;7.80;49.63;101422.20;1733371;81;27005;-73
2022/05/10 02:00:59;;;;;;;4.95;1.55;;;;;;;7.78;49.75;101418.96;1728709;81;21023;-74
2022/05/10 02:03:32;;;;;;;5.97;1.52;;;;;;;7.74;49.84;101419.39;1733522;81;21016;-74
2022/05/10 02:06:30;;;;;;;2.55;1.40;;;;;;;7.72;49.21;101424.63;1727091;81;21196;-74
2022/05/10 02:09:39;;;;;;;4.22;1.82;;;;;;;7.71;48.31;101422.48;1731094;81;21050;-74
2022/05/10 02:12:14;;;;;;;3.08;1.50;;;;;;;7.73;47.58;101422.25;1689730;83;21131;-74
2022/05/10 02:15:13;;;;;;;5.65;1.77;;;;;;;7.77;47.19;101427.98;1725909;80;38779;-73
2022/05/10 02:17:57;;;;;;;4.85;1.92;;;;;;;7.78;46.60;101422.44;1734077;81;21026;-74
2022/05/10 02:20:29;;;;;;;4.35;2.00;;;;;;;7.80;46.23;101424.86;1734875;81;21130;-74
2022/05/10 02:23:03;;;;;;;3.27;1.60;;;;;;;7.81;46.21;101425.98;1720888;81;21395;-74
2022/05/10 02:25:35;;;;;;;4.05;1.80;;;;;;;7.83;46.37;101423.09;1729257;81;20978;-73
2022/05/10 02:28:11;;;;;;;3.47;1.55;;;;;;;7.84;46.38;101419.43;1734338;81;20939;-76
2022/05/10 02:30:39;;;;;;;4.35;1.90;;;;;;;7.85;46.28;101427.17;1734776;81;21085;-73
2022/05/10 02:33:10;;;;;;;4.28;1.70;;;;;;;7.87;46.64;101422.47;1734604;80;21165;-74
2022/05/10 02:35:57;;;;;;;4.25;1.50;;;;;;;7.89;47.71;101423.56;1711787;81;20971;-73
2022/05/10 02:38:34;;;;;;;5.50;2.00;;;;;;;7.90;48.23;101428.68;1733087;80;21027;-74
2022/05/10 02:41:04;;;;;;;3.25;1.67;;;;;;;7.90;48.61;101433.19;1719116;81;21039;-74
2022/05/10 02:43:35;;;;;;;4.40;1.80;;;;;;;7.89;49.07;101423.56;1733509;81;20928;-73
2022/05/10 02:46:02;;;;;;;5.75;1.80;;;;;;;7.89;49.40;101424.89;1734328;81;21123;-73
2022/05/10 02:48:35;;;;;;;2.92;1.70;;;;;;;7.91;49.75;101432.16;1734791;81;21523;-74
2022/05/10 02:51:04;;;;;;;4.03;1.77;;;;;;;7.89;50.41;101432.35;1734288;81;21082;-74
2022/05/10 02:53:32;;;;;;;4.12;1.90;;;;;;;7.92;50.90;101429.78;1734506;82;21021;-73
2022/05/10 02:56:15;;;;;;;4.28;2.02;;;;;;;7.93;51.38;101431.40;1718791;82;20985;-74
2022/05/10 02:58:55;;;;;;;4.22;1.90;;;;;;;7.97;51.74;101425.97;1718521;82;21261;-74
2022/05/10 03:01:50;;;;;;;4.03;2.10;;;;;;;8.00;52.00;101420.21;1721693;82;21143;-74
2022/05/10 03:04:17;;;;;;;5.87;2.00;;;;;;;8.05;52.23;101420.35;1719064;80;21013;-73
2022/05/10 03:06:46;;;;;;;4.67;2.30;;;;;;;8.13;52.37;101428.59;1722865;80;21045;-73
2022/05/10 03:09:13;;;;;;;4.55;2.00;;;;;;;8.18;52.50;101422.89;1704898;82;21476;-74
2022/05/10 03:11:41;;;;;;;5.10;2.08;;;;;;;8.26;52.73;101425.80;1718673;83;21163;-73
2022/05/10 03:14:13;;;;;;;5.12;2.30;;;;;;;8.36;52.93;101423.97;1719004;82;21635;-73
2022/05/10 03:16:40;;;;;;;3.52;1.90;;;;;;;8.45;53.20;101428.78;1718236;82;21103;-74
2022/05/10 03:19:07;;;;;;;4.83;2.22;;;;;;;8.50;53.35;101426.80;1733672;80;21660;-73
2022/05/10 03:21:37;;;;;;;4.15;1.90;;;;;;;8.57;53.40;101427.53;1719368;83;20993;-75
2022/05/10 03:24:06;;;;;;;4.50;1.90;;;;;;;8.64;53.45;101421.61;1719034;82;21063;-74
2022/05/10 03:26:34;;;;;;;5.58;2.12;;;;;;;8.72;53.51;101421.85;1714664;82;21036;-75
2022/05/10 03:29:03;;;;;;;4.30;2.12;;;;;;;8.80;53.47;101424.72;1685648;82;20943;-73
2022/05/10 03:31:30;;;;;;;5.37;2.30;;;;;;;8.85;53.36;101427.02;1722769;80;21052;-74
2022/05/10 03:36:43;;;;;;;6.08;2.65;;;;;;;9.01;53.66;101432.22;1719832;82;21133;-75
2022/05/10 03:39:13;;;;;;;7.03;2.42;;;;;;;9.10;54.15;101430.07;1734791;82;20975;-75
2022/05/10 03:41:41;;;;;;;3.77;2.00;;;;;;;9.16;54.22;101427.31;1734108;82;21107;-75
2022/05/10 03:44:10;;;;;;;4.05;2.20;;;;;;;9.28;54.14;101434.53;1735098;82;20971;-75
2022/05/10 03:46:37;;;;;;;4.10;2.20;;;;;;;9.36;53.73;101433.70;1739927;80;20978;-75
2022/05/10 03:49:07;;;;;;;3.77;2.00;;;;;;;9.47;52.73;101432.63;1726290;80;21776;-75
2022/05/10 03:51:36;;;;;;;5.30;2.35;;;;;;;9.54;51.79;101439.51;1735094;82;21031;-73
2022/05/10 03:54:03;;;;;;;3.40;2.05;;;;;;;9.62;51.13;101440.50;1734601;80;21066;-74
2022/05/10 03:56:30;;;;;;;5.40;2.70;;;;;;;9.69;50.71;101436.92;1730094;80;21141;-75
2022/05/10 03:58:58;;;;;;;4.03;1.90;;;;;;;9.77;50.71;101437.91;1720388;82;20998;-74
2022/05/10 04:01:25;;;;;;;6.08;2.37;;;;;;;9.85;50.62;101441.59;1734052;80;21668;-75
2022/05/10 04:03:52;;;;;;;4.90;2.22;;;;;;;9.94;50.56;101438.06;1733963;82;21042;-75
2022/05/10 04:06:22;;;;;;;4.58;2.35;;;;;;;10.01;50.40;101432.90;1732381;82;21037;-74
2022/05/10 04:08:49;;;;;;;6.42;2.55;;;;;;;10.12;50.00;101434.47;1727286;82;21023;-75
2022/05/10 04:11:18;;;;;;;4.70;2.27;;;;;;;10.20;49.53;101433.61;1734573;82;21494;-74
2022/05/10 04:13:45;;;;;;;5.12;2.80;;;;;;;10.29;49.13;101429.55;1734346;82;21074;-75
2022/05/10 04:16:12;;;;;;;6.37;2.80;;;;;;;10.40;46.87;101434.61;1734254;82;21053;-75
2022/05/10 04:18:39;;;;;;;7.00;3.83;;;;;;;10.48;46.76;101432.90;1734579;81;21042;-75
2022/05/10 04:21:06;;;;;;;8.65;3.65;;;;;;;10.58;45.34;101437.65;1733460;82;20971;-75
2022/05/10 04:23:35;;;;;;;7.50;4.20;;;;;;;10.67;44.79;101433.56;1733204;80;21109;-75
2022/05/10 04:26:10;;;;;;;9.03;4.87;;;;;;;10.76;44.48;101430.02;1735151;82;21815;-73
2022/05/10 04:28:38;;;;;;;7.58;4.25;;;;;;;10.85;43.75;101429.91;1732894;81;20954;-73
2022/05/10 04:31:05;;;;;;;7.83;4.33;;;;;;;10.91;43.74;101424.95;1742600;80;20983;-73
2022/05/10 04:33:32;;;;;;;8.00;3.70;;;;;;;10.99;43.49;101433.95;1766250;80;21018;-74
2022/05/10 04:35:59;;;;;;;6.92;3.35;;;;;;;11.08;43.56;101430.35;1736683;80;20943;-74
2022/05/10 04:38:26;;;;;;;6.05;3.27;;;;;;;11.16;43.05;101427.84;1712970;82;21193;-74
2022/05/10 04:43:41;;;;;;;6.08;2.70;;;;;;;11.32;41.83;101431.08;1734785;80;21144;-74
2022/05/10 04:46:08;;;;;;;5.15;2.40;;;;;;;11.41;40.45;101428.27;1734618;82;21086;-72
2022/05/10 04:48:35;;;;;;;6.28;2.40;;;;;;;11.49;39.85;101426.56;1736390;82;21129;-73
2022/05/10 04:51:04;;;;;;;4.00;1.95;;;;;;;11.58;39.04;101426.14;1733985;80;21226;-73
2022/05/10 04:53:32;;;;;;;4.55;2.17;;;;;;;11.68;39.46;101422.30;1729573;82;21019;-74
2022/05/10 04:55:58;;;;;;;6.50;2.10;;;;;;;11.80;38.47;101410.99;1733752;81;21438;-74
2022/05/10 04:58:25;;;;;;;5.47;2.30;;;;;;;11.89;37.73;101413.58;1736718;80;21029;-73
2022/05/10 05:00:54;;;;;;;3.72;1.57;;;;;;;11.97;37.63;101417.17;1726576;81;21019;-74
2022/05/10 05:03:21;;;;;;;4.47;2.00;;;;;;;12.10;37.73;101416.55;1737553;80;21517;-73
2022/05/10 05:05:51;;;;;;;4.92;1.67;;;;;;;12.22;37.61;101411.11;1737199;82;21054;-74
2022/05/10 05:08:18;;;;;;;4.47;1.82;;;;;;;12.34;36.59;101412.63;1737751;80;20991;-75
2022/05/10 05:10:45;;;;;;;4.28;1.98;;;;;;;12.43;36.14;101413.80;1715699;80;20904;-73
2022/05/10 05:13:14;;;;;;;5.47;1.75;;;;;;;12.54;36.92;101409.94;1715785;82;21035;-73
2022/05/10 05:15:48;;;;;;;6.15;1.75;;;;;;;12.68;36.18;101414.66;1726088;82;21554;-73
2022/05/10 05:18:15;;;;;;;4.47;1.60;;;;;;;12.80;35.46;101416.38;1750017;80;20979;-74
2022/05/10 05:20:46;;;;;;;3.83;1.60;;;;;;;12.89;34.89;101417.56;1738570;82;21097;-73
2022/05/10 05:23:13;;;;;;;3.02;1.37;;;;;;;12.97;34.84;101413.11;1736862;82;21054;-75
2022/05/10 05:25:43;;;;;;;3.65;1.45;;;;;;;13.07;34.52;101407.05;1735257;82;20955;-74
2022/05/10 05:28:10;;;;;;;4.40;1.50;;;;;;;13.14;34.33;101414.36;1736378;82;21160;-73
2022/05/10 05:30:38;;;;;;;4.40;1.50;;;;;;;13.21;34.51;101408.80;1757156;80;21009;-74
2022/05/10 05:33:05;;;;;;;3.17;1.35;;;;;;;13.32;33.76;101414.02;1738245;80;20971;-74
2022/05/10 05:35:35;;;;;;;2.87;1.30;;;;;;;13.39;32.67;101413.81;1733785;81;20978;-74
2022/05/10 05:38:02;;;;;;;4.53;1.60;;;;;;;13.47;32.95;101408.53;1735561;81;21354;-73
2022/05/10 05:40:30;;;;;;;4.25;1.57;;;;;;;13.56;33.50;101407.81;1733719;80;21239;-73
2022/05/10 05:42:58;;;;;;;2.70;1.55;;;;;;;13.67;32.59;101406.55;1717802;82;21046;-73
2022/05/10 05:45:25;;;;;;;5.15;1.85;;;;;;;13.76;32.91;101407.16;1733592;82;21051;-74
2022/05/10 05:47:54;;;;;;;4.55;2.10;;;;;;;13.83;33.03;101406.94;1725028;81;21137;-74
2022/05/10 05:50:39;;;;;;;3.72;1.75;;;;;;;13.92;33.43;101404.56;1725105;80;20864;-71
2022/05/10 05:53:12;;;;;;;3.98;1.62;;;;;;;14.01;33.58;101403.02;1730433;81;20995;-73
2022/05/10 05:55:41;;;;;;;3.95;1.90;;;;;;;14.10;33.85;101401.47;1732729;81;21032;-74
2022/05/10 05:58:16;;;;;;;5.15;2.00;;;;;;;14.19;33.43;101401.26;1732281;81;20991;-72
2022/05/10 06:00:45;;;;;;;4.00;1.77;;;;;;;14.28;33.15;101398.87;1738681;81;20966;-74
2022/05/10 06:03:14;;;;;;;5.10;2.00;;;;;;;14.34;32.11;101393.80;1711910;82;20960;-72
2022/05/10 06:05:41;;;;;;;4.30;1.90;;;;;;;14.38;32.65;101390.05;1734188;80;21781;-74
2022/05/10 06:08:09;;;;;;;8.88;2.70;;;;;;;14.45;32.45;101392.79;1735781;81;21017;-74
2022/05/10 06:10:36;;;;;;;5.55;2.42;;;;;;;14.49;32.18;101392.53;1719430;83;21096;-76
2022/05/10 06:13:03;;;;;;;7.30;3.20;;;;;;;14.55;31.94;101393.41;1719256;82;21578;-73
2022/05/10 06:15:32;;;;;;;6.10;3.12;;;;;;;14.56;31.90;101390.98;1735372;81;21628;-75
2022/05/10 06:18:00;;;;;;;8.17;3.77;;;;;;;14.61;31.66;101392.35;1734713;81;21645;-73
2022/05/10 06:20:27;;;;;;;7.08;3.35;;;;;;;14.68;31.69;101387.53;1735529;81;21913;-74
2022/05/10 06:22:55;;;;;;;8.83;3.70;;;;;;;14.77;31.73;101385.95;1734671;81;20936;-73
2022/05/10 06:25:23;;;;;;;8.33;3.23;;;;;;;14.90;31.49;101383.81;1733229;81;21176;-74
2022/05/10 06:27:52;;;;;;;6.20;3.30;;;;;;;15.02;30.86;101381.70;1732121;81;21261;-74
2022/05/10 06:30:22;;;;;;;9.13;3.90;;;;;;;15.12;30.89;101383.05;1734933;82;22193;-74
2022/05/10 06:32:50;;;;;;;8.20;3.40;;;;;;;15.18;30.39;101381.99;1733714;81;21319;-74
2022/05/10 06:35:18;;;;;;;6.87;3.40;;;;;;;15.21;29.34;101382.80;1719103;80;21196;-74
2022/05/10 06:40:33;;;;;;;6.77;2.90;;;;;;;15.24;29.10;101382.81;1729278;81;21312;-73
2022/05/10 06:43:01;;;;;;;6.50;3.07;;;;;;;15.22;27.81;101372.84;1745805;81;21331;-75
2022/05/10 06:45:30;;;;;;;9.10;3.57;;;;;;;15.27;27.96;101374.72;1731128;81;21176;-73
2022/05/10 06:47:57;;;;;;;9.00;3.40;;;;;;;15.34;28.38;101376.09;1731364;81;21261;-72
2022/05/10 06:50:25;;;;;;;6.63;2.70;;;;;;;15.41;28.43;101371.23;1731071;81;21496;-72
2022/05/10 06:52:57;;;;;;;6.70;3.20;;;;;;;15.49;27.59;101371.23;1725314;81;21259;-73
2022/05/10 06:55:27;;;;;;;7.03;2.93;;;;;;;15.55;27.59;101367.46;1731971;81;21394;-76
2022/05/10 06:57:54;;;;;;;8.03;2.97;;;;;;;15.65;27.22;101369.34;1726355;81;21212;-74
2022/05/10 07:00:23;;;;;;;7.93;3.03;;;;;;;15.67;26.73;101365.34;1721276;81;21669;-74
2022/05/10 07:02:50;;;;;;;6.63;2.90;;;;;;;15.64;26.79;101375.27;1714027;81;21467;-74
2022/05/10 07:05:18;;;;;;;8.50;3.40;;;;;;;15.64;26.62;101359.11;1726442;81;21329;-74
2022/05/10 07:07:48;;;;;;;6.03;3.03;;;;;;;15.69;26.85;101356.45;1725816;81;22105;-74
2022/05/10 07:10:17;;;;;;;9.30;3.63;;;;;;;15.77;27.54;101361.82;1726795;81;21126;-74
2022/05/10 07:12:45;;;;;;;6.80;3.40;;;;;;;15.87;27.19;101346.19;1710757;83;21653;-73
2022/05/10 07:15:16;;;;;;;6.63;3.20;;;;;;;15.94;26.68;101346.70;1725154;81;21266;-73
2022/05/10 07:17:45;;;;;;;6.73;3.47;;;;;;;15.97;26.99;101346.16;1726958;81;21917;-75
2022/05/10 07:20:14;;;;;;;7.37;3.37;;;;;;;16.06;27.24;101344.52;1726095;81;21306;-74
2022/05/10 07:22:41;;;;;;;16.23;4.00;;;;;;;16.16;26.64;101346.38;1726903;81;21256;-72
2022/05/10 07:25:11;;;;;;;13.37;3.50;;;;;;;16.21;26.08;101338.80;1728931;81;21308;-73
2022/05/10 07:27:39;;;;;;;5.97;3.00;;;;;;;16.24;25.75;101335.01;1729120;81;21814;-73
2022/05/10 07:30:09;;;;;;;5.77;2.20;;;;;;;16.23;25.12;101343.39;1726845;81;21241;-74
2022/05/10 07:32:38;;;;;;;5.60;1.73;;;;;;;16.22;24.61;101326.38;1726545;81;21356;-74
2022/05/10 07:35:05;;;;;;;5.83;2.00;;;;;;;16.22;24.17;101331.77;1727342;81;21317;-72
2022/05/10 07:37:34;;;;;;;3.63;1.70;;;;;;;16.28;24.77;101328.52;1725958;81;21141;-73
2022/05/10 07:40:02;;;;;;;4.23;1.70;;;;;;;16.38;24.44;101333.87;1710821;81;21303;-74
2022/05/10 07:43:35;;;;;;;;;;;;;;;;;;;;;
2022/05/10 07:46:17;;;;;;;3.67;1.60;;;;;;;16.45;25.49;101328.17;1690922;81;21284;-75
2022/05/10 07:48:45;;;;;;;2.57;1.40;;;;;;;16.60;25.15;101327.56;1728346;83;21883;-74
2022/05/10 07:51:12;;;;;;;3.20;1.40;;;;;;;16.74;24.32;101325.59;1726787;83;21282;-74
2022/05/10 07:53:41;;;;;;;2.43;1.03;;;;;;;16.79;24.38;101317.51;1726477;81;21284;-74
2022/05/10 07:56:08;;;;;;;2.67;1.10;;;;;;;16.80;24.09;101315.06;1726044;83;21342;-74
2022/05/10 07:58:35;;;;;;;2.77;1.07;;;;;;;16.81;23.99;101316.66;1712036;83;21655;-74
2022/05/10 08:01:03;;;;;;;3.10;1.10;;;;;;;16.83;23.68;101307.77;1726819;81;21328;-74
2022/05/10 08:03:31;;;;;;;2.50;0.97;;;;;;;16.83;23.59;101301.02;1712432;81;21299;-74
2022/05/10 08:06:01;;;;;;;2.77;1.00;;;;;;;16.83;23.25;101305.86;1727030;83;21403;-73
2022/05/10 08:08:29;;;;;;;2.53;1.20;;;;;;;16.83;23.27;101301.81;1726431;81;21762;-75
2022/05/10 08:10:58;;;;;;;1.73;0.90;;;;;;;16.82;22.75;101302.11;1726999;81;21295;-74
2022/05/10 08:13:31;;;;;;;1.77;0.90;;;;;;;16.81;23.40;101298.61;1726901;81;21772;-74
2022/05/10 08:16:01;;;;;;;1.93;0.90;;;;;;;16.83;22.90;101310.46;1727407;81;21501;-74
2022/05/10 08:18:28;;;;;;;1.83;0.90;;;;;;;16.80;23.11;101309.13;1726127;81;21338;-74
2022/05/10 08:20:59;;;;;;;3.20;1.10;;;;;;;16.79;22.64;101293.23;1710594;81;21916;-74
2022/05/10 08:23:32;;;;;;;2.33;1.10;;;;;;;16.78;22.42;101290.25;1726988;81;21326;-73
2022/05/10 08:25:59;;;;;;;3.63;1.17;;;;;;;16.78;22.42;101290.25;1727569;81;21333;-74
2022/05/10 08:28:28;;;;;;;3.10;1.30;;;;;;;16.74;22.94;101289.17;1726490;81;21302;-73
2022/05/10 08:30:56;;;;;;;3.50;1.00;;;;;;;16.74;23.29;101297.27;1727563;81;21261;-74
2022/05/10 08:33:30;;;;;;;3.17;1.20;;;;;;;16.74;22.99;101277.83;1694664;81;21778;-74
2022/05/10 08:35:58;;;;;;;1.77;0.87;;;;;;;16.75;23.09;101284.06;1726427;81;21284;-74
2022/05/10 08:38:27;;;;;;;3.73;1.30;;;;;;;16.84;23.13;101295.88;1726909;81;21212;-74
2022/05/10 08:41:05;;;;;;;2.83;1.27;;;;;;;16.90;23.40;101285.31;1726077;81;21363;-74
2022/05/10 08:44:08;;;;;;;6.30;1.10;;;;;;;16.98;23.11;101286.08;1723272;81;21392;-73
2022/05/10 08:46:42;;;;;;;1.90;1.10;;;;;;;16.97;21.93;101274.19;1733551;80;21223;-74
2022/05/10 08:49:34;;;;;;;2.37;1.00;;;;;;;16.97;21.93;101274.19;1699848;82;21506;-73
2022/05/10 08:52:03;;;;;;;2.62;1.05;;;;;;;16.94;22.48;101270.16;1720291;81;21417;-71
2022/05/10 08:54:30;;;;;;;2.53;1.20;;;;;;;16.86;22.63;101289.12;1714568;81;21001;-72
2022/05/10 08:57:10;;;;;;;3.70;1.10;;;;;;;16.86;22.63;101289.12;1728747;81;21374;-74
2022/05/10 09:00:05;;;;;;;4.62;1.20;;;;;;;16.84;22.29;101272.94;1726866;83;21448;-75
2022/05/10 09:02:54;;;;;;;1.87;0.87;;;;;;;16.87;22.83;101253.49;1724223;81;21015;-74
2022/05/10 09:05:39;;;;;;;3.70;1.50;;;;;;;16.87;22.83;101253.49;1716748;81;21447;-74
2022/05/10 09:08:24;;;;;;;4.13;1.10;;;;;;;16.92;21.70;101258.86;1713678;81;21415;-74
2022/05/10 09:11:01;;;;;;;3.43;1.10;;;;;;;16.99;22.29;101257.98;1727351;81;21759;-73
2022/05/10 09:13:29;;;;;;;3.37;1.70;;;;;;;17.05;23.19;101249.31;1726636;82;21326;-73
2022/05/10 09:16:08;;;;;;;4.17;1.80;;;;;;;17.05;21.89;101249.31;1722389;81;21847;-73
2022/05/10 09:18:53;;;;;;;3.20;1.37;;;;;;;17.05;22.89;101242.56;1713651;81;21485;-74
2022/05/10 09:21:29;;;;;;;4.83;1.60;;;;;;;17.25;22.08;101226.17;1727161;83;21388;-74
2022/05/10 09:24:26;;;;;;;4.17;1.80;;;;;;;17.25;22.08;101226.17;1726035;81;21404;-73
2022/05/10 09:27:06;;;;;;;4.30;2.17;;;;;;;17.45;22.71;101227.86;1726217;81;21359;-73
2022/05/10 09:29:37;;;;;;;6.60;2.10;;;;;;;17.54;22.29;101223.44;1726750;82;21438;-74
2022/05/10 09:35:24;;;;;;;5.03;1.90;;;;;;;17.62;22.96;101215.24;1715478;83;21068;-74
2022/05/10 09:38:06;;;;;;;4.80;2.07;;;;;;;17.88;22.67;101206.31;1726928;83;20957;-74
2022/05/10 09:40:38;;;;;;;5.22;2.05;;;;;;;17.88;22.67;101206.31;1727602;81;21862;-73
2022/05/10 09:43:31;;;;;;;3.77;2.23;;;;;;;17.88;22.99;101206.86;1726444;83;21136;-75
2022/05/10 09:46:21;;;;;;;4.67;2.43;;;;;;;17.79;22.60;101198.03;1724226;81;21589;-73
2022/05/10 09:48:51;;;;;;;5.15;2.05;;;;;;;17.79;22.83;101192.63;1716027;81;27033;-74
2022/05/10 09:51:37;;;;;;;4.07;2.30;;;;;;;17.83;22.85;101189.35;1727324;81;21112;-73
2022/05/10 09:54:25;;;;;;;5.53;2.30;;;;;;;17.87;23.07;101191.20;1727388;83;21586;-74
2022/05/10 09:56:56;;;;;;;5.73;2.40;;;;;;;17.87;23.07;101191.20;1727201;81;21643;-74
2022/05/10 09:59:30;;;;;;;;;;;;;;;17.91;23.73;101190.07;1713482;81;21883;-72
2022/05/10 10:02:00;;;;;;;4.37;2.10;;;;;;;18.13;23.04;101177.31;1714023;81;20197;-73
2022/05/10 10:04:34;;;;;;;4.83;1.90;;;;;;;18.13;23.04;101177.31;1697122;83;21728;-73
2022/05/10 10:07:20;;;;;;;3.83;1.70;;;;;;;18.18;22.92;101174.55;1730249;81;21545;-74
2022/05/10 10:09:59;;;;;;;4.50;1.97;;;;;;;18.19;22.73;101163.98;1719509;81;21833;-73
2022/05/10 10:12:39;;;;;;;4.27;2.17;;;;;;;18.28;23.41;101158.97;1705128;83;21709;-74
2022/05/10 10:15:40;;;;;;;5.63;2.23;;;;;;;18.28;23.41;101158.97;1726746;81;21662;-74
2022/05/10 10:18:10;;;;;;;5.47;1.98;;;;;;;18.30;23.11;101151.94;1727296;81;21843;-73
2022/05/10 10:20:54;;;;;;;5.70;2.03;;;;;;;18.25;22.52;101172.28;1729732;81;21021;-72
2022/05/10 10:23:34;;;;;;;9.13;3.40;;;;;;;18.22;22.75;101166.10;1731576;81;21726;-73
2022/05/10 10:26:07;;;;;;;5.85;1.82;;;;;;;18.26;22.71;101153.59;1684675;83;27560;-75
2022/05/10 10:28:42;;;;;;;3.70;1.90;;;;;;;18.34;22.60;101143.48;1727077;81;21025;-74
2022/05/10 10:31:32;;;;;;;4.10;1.60;;;;;;;18.46;23.31;101138.42;1726961;81;21851;-75
2022/05/10 10:34:10;;;;;;;4.83;1.87;;;;;;;18.60;23.02;101132.25;1726827;81;21758;-74
2022/05/10 10:37:04;;;;;;;5.43;1.80;;;;;;;18.72;22.98;101138.83;1713369;83;21658;-74
2022/05/10 10:39:44;;;;;;;6.23;1.73;;;;;;;18.74;22.94;101134.45;1698926;83;21663;-75
2022/05/10 10:42:29;;;;;;;4.87;1.97;;;;;;;18.82;22.28;101134.31;1726321;81;22256;-73
2022/05/10 10:45:00;;;;;;;4.33;1.70;;;;;;;18.82;22.28;101134.31;1726877;81;21055;-74
2022/05/10 10:47:44;;;;;;;3.70;1.57;;;;;;;18.77;22.49;101127.09;1727264;81;21754;-75
2022/05/10 10:50:27;;;;;;;4.13;1.60;;;;;;;18.67;22.63;101122.64;1722457;81;21741;-74
2022/05/10 10:52:57;;;;;;;3.07;1.60;;;;;;;18.57;22.84;101107.14;1718517;82;21758;-75
2022/05/10 10:55:32;;;;;;;4.87;1.80;;;;;;;18.48;23.23;101116.47;1718843;82;21782;-75
2022/05/10 10:58:36;;;;;;;4.17;1.90;;;;;;;18.51;23.57;101104.51;1706920;82;22213;-74
2022/05/10 11:01:23;;;;;;;4.33;1.60;;;;;;;18.62;22.67;101106.48;1709744;82;21778;-74
2022/05/10 11:04:40;;;;;;;4.70;2.03;;;;;;;18.64;23.35;101093.47;1723663;82;21724;-75
2022/05/10 11:07:14;;;;;;;4.40;1.43;;;;;;;18.73;22.71;101093.63;1724807;82;21820;-74
2022/05/10 11:10:23;;;;;;;4.80;1.80;;;;;;;18.68;22.96;101087.70;1734710;80;21736;-75
2022/05/10 11:13:29;;;;;;;3.57;1.90;;;;;;;18.65;22.35;101083.44;1722698;82;22249;-73
2022/05/10 11:16:07;;;;;;;3.97;1.73;;;;;;;18.55;22.62;101083.63;1724492;81;21755;-74
2022/05/10 11:18:46;;;;;;;5.50;1.80;;;;;;;18.59;23.06;101089.52;1715132;82;21589;-74
2022/05/10 11:21:23;;;;;;;4.77;1.80;;;;;;;18.73;23.15;101072.77;1734848;82;21709;-74
2022/05/10 11:24:20;;;;;;;2.87;1.70;;;;;;;18.95;22.84;101070.74;1734230;82;21716;-75
2022/05/10 11:27:12;;;;;;;2.90;1.40;;;;;;;19.09;22.78;101065.88;1734761;82;21011;-74
2022/05/10 11:30:03;;;;;;;;;;;;;;;19.09;21.89;101064.52;1696526;82;21687;-75
2022/05/10 11:32:54;;;;;;;4.03;1.70;;;;;;;19.05;22.71;101057.56;1722506;80;21315;-75
2022/05/10 11:35:27;;;;;;;3.43;1.50;;;;;;;19.05;22.60;101053.50;1712749;82;20935;-75
2022/05/10 11:37:59;;;;;;;3.50;1.80;;;;;;;19.02;22.23;101051.91;1734480;82;21632;-75
2022/05/10 11:41:04;;;;;;;5.20;1.83;;;;;;;18.93;22.81;101048.58;1740327;80;21770;-74
2022/05/10 11:43:56;;;;;;;5.07;1.97;;;;;;;18.95;22.71;101049.61;1696175;82;21795;-75
2022/05/10 11:47:07;;;;;;;3.60;1.70;;;;;;;18.97;22.28;101046.86;1733280;82;22149;-73
2022/05/10 11:50:03;;;;;;;3.67;1.73;;;;;;;18.99;21.79;101038.45;1740262;80;21069;-72
2022/05/10 11:53:00;;;;;;;6.10;2.00;;;;;;;18.92;22.26;101020.44;1737864;82;21692;-75
2022/05/10 11:55:40;;;;;;;3.90;1.60;;;;;;;18.92;22.26;101020.44;1735239;82;21007;-74
2022/05/10 11:58:09;;;;;;;4.63;1.93;;;;;;;18.92;22.61;101014.50;1734808;80;21794;-73
2022/05/10 12:00:50;;;;;;;4.47;2.20;;;;;;;18.98;22.67;101017.33;1734295;82;22265;-74
2022/05/10 12:03:43;;;;;;;4.40;1.93;;;;;;;18.91;22.26;101010.72;1735272;82;21691;-74
2022/05/10 12:06:31;;;;;;;4.23;1.77;;;;;;;18.91;22.26;101010.72;1700270;82;21114;-75
2022/05/10 12:09:04;;;;;;;3.90;1.70;;;;;;;18.95;22.77;100995.47;1735154;82;21742;-73
2022/05/10 12:11:37;;;;;;;3.58;1.75;;;;;;;18.95;22.77;100995.47;1735053;80;21592;-73
2022/05/10 12:22:58;;;;;;;4.08;1.72;;;;;;;19.34;22.55;100991.40;1734390;82;21683;-74
2022/05/10 12:26:00;;;;;;;3.40;1.60;;;;;;;19.37;22.09;100972.63;1735499;82;21010;-74
2022/05/10 12:28:45;;;;;;;4.60;2.02;;;;;;;19.43;22.16;100954.36;1735603;80;22371;-76